aviador You're here:

KDYB Decoded Metar

in
Report Time2017-06-29 12:15:00
UTC Time2017-06-29 12:27:13
Flight Rules vfr VFR
WindCalm
Visibility9999 m
Phenomena:N/A
Clouds:N/A
Expected CloudBase > 1,200 ft AGL from Temp-Dew spread
CeilingNone
Temp23°C
Dew Point20°C (83% RH)
QNH1023 hPa
Raw Report
METAR KDYB 291215Z AUTO 00000KT 10SM CLR 23/20 A3020 RMK AO1=

Extra information for KDYB:More info

Social comments